メインページ
METAR-TAF:

METAR-TAF

空港 :

アムステルダム・スキポール空港

アムステルダム, オランダ

緯度: 52-18N, 経度: 004-46E, 海抜: -4m

現時点の気象観測

当レポートは20分前の12:55(UTC)に作成
南西の風 12kt、南/南西から西の間で変化する
気温 22°C
湿度 38%
気圧 1018 hPa
視程10km以上
1,500メートル以下は雲なし、積乱雲なし

METAR: EHAM 061255Z 23012KT 200V260 CAVOK 22/07 Q1018 NOSIG

時間: 15:15 (13:15 UTC)

予報

当レポートは2時間29分前の10:46(UTC)に作成
予報は06日の 12時(UTC)から 07日の 18時(UTC)まで有効
南西の風 13kt
視程10km以上
1,500メートル以下は雲なし、積乱雲なし
06日の 12時(UTC)から 06日の 15時(UTC)まで徐々に
西/南西の風 14kt
確率 40% :
06日の 16時(UTC)から 06日の 19時(UTC)まで一時的に
視程: 7000m
高度1400ftの千切れ雲あり
小雨
06日の 18時(UTC)から 06日の 21時(UTC)まで徐々に
西/南西の風 5kt
06日の 22時(UTC)から 07日の 01時(UTC)まで徐々に
変向風 3kt
視程: 2000m
散在霧
確率 40%
07日の 01時(UTC)から 07日の 09時(UTC)まで
視程: 0600m
07日の 06時(UTC)から 07日の 09時(UTC)まで徐々に
東/南東の風 6kt
視程10km以上
1,500メートル以下は雲なし、積乱雲なし

TAF: EHAM 061046Z 0612/0718 22013KT CAVOK BECMG 0612/0615 25014KT PROB40 TEMPO 0616/0619 7000 -RA BKN014 BECMG 0618/0621 24005KT BECMG 0622/0701 VRB03KT 2000 BCFG PROB40 0701/0709 0600 FG BECMG 0706/0709 11006KT CAVOK

4,000以上の空港の気象観測と天気予報(METAR報とTAF報)

利用可能な観測所は地図上に黄色い丸と赤い丸で示す。

丸の上にカーソルを重ねると観測所名を参照できる。

次にクリックすると気象観測と天気予報を参照できる。

マップの切り替え:黒色「×」印の緑ボタンをクリックして拡大、「-」印の緑ボタンをクリックして縮小、緑色の三角印をクリックして隣りの地図に切り替え


METAR-TAF: